Date,TemperatureHighF,TemperatureAvgF,TemperatureLowF,DewpointHighF,DewpointAvgF,DewpointLowF,HumidityHigh,HumidityAvg,HumidityLow,PressureMaxIn,PressureMinIn,WindSpeedMaxMPH,WindSpeedAvgMPH,GustSpeedMaxMPH,PrecipitationSumIn
2013-1-1,32.5,30.1,26.9,28.0,26.4,25.0,91,86,76,30.66,30.52,0,0,0,0.00
2013-1-2,36.1,29.7,22.7,28.0,24.6,20.0,90,82,59,30.64,30.56,4,0,0,0.00
2013-1-3,33.5,24.4,18.2,25.0,20.4,16.0,91,85,64,30.56,30.39,2,0,0,0.00
2013-1-4,35.6,29.2,21.3,29.0,24.5,19.0,91,83,70,30.53,30.44,2,0,0,0.00
2013-1-5,41.2,32.5,26.2,31.0,27.6,25.0,93,83,58,30.46,30.26,4,0,0,0.00
2013-1-6,38.1,33.4,30.5,33.0,30.1,28.0,91,88,79,30.27,30.18,2,0,0,0.00
2013-1-7,34.8,32.6,30.8,33.0,30.9,28.0,95,93,88,30.18,30.00,2,0,0,0.11
2013-1-8,36.8,34.0,31.5,37.0,32.7,30.0,100,95,94,30.23,30.05,2,0,0,0.30
2013-1-9,41.3,36.9,33.3,40.0,35.5,32.0,95,95,94,30.05,29.72,4,0,0,0.20
2013-1-10,36.0,33.9,30.3,35.0,31.9,27.0,95,92,85,29.94,29.84,5,1,0,0.04
2013-1-11,33.1,27.7,21.9,27.0,23.9,20.0,91,86,75,30.35,29.94,5,1,0,0.04
2013-1-12,29.4,26.3,23.7,25.0,22.4,20.0,92,85,73,30.42,30.34,4,0,0,0.00
2013-1-13,30.8,25.1,21.2,23.0,20.5,18.0,92,83,69,30.53,30.40,4,0,0,0.02
2013-1-14,28.6,25.8,22.7,26.0,22.8,19.0,92,88,84,30.58,30.45,3,0,0,0.00
2013-1-15,37.5,30.4,27.4,30.0,27.0,25.0,92,87,69,30.70,30.57,1,0,0,0.11
2013-1-16,36.8,28.1,22.1,29.0,23.5,18.0,92,83,70,30.74,30.64,4,1,0,0.00
2013-1-17,39.2,26.1,18.4,29.0,22.4,16.0,92,86,63,30.71,30.51,4,0,0,0.01
2013-1-18,38.8,27.8,21.9,30.0,24.4,20.0,92,87,67,30.51,30.35,4,0,0,0.00
2013-1-19,40.2,26.8,21.7,32.0,23.6,20.0,93,88,71,30.57,30.45,3,0,0,0.00
2013-1-20,38.8,27.5,21.8,31.0,23.9,20.0,92,87,69,30.63,30.50,5,1,0,0.00
2013-1-21,38.9,26.4,20.7,30.0,22.9,18.0,92,86,69,30.51,30.34,4,1,0,0.00
2013-1-22,39.3,27.2,18.8,30.0,23.1,17.0,92,84,66,30.43,30.24,5,1,0,0.00
2013-1-23,37.1,30.1,23.0,33.0,27.0,21.0,94,88,71,30.27,30.04,4,0,0,0.09
2013-1-24,44.0,36.0,33.1,40.0,34.2,32.0,94,93,85,30.31,30.13,3,0,0,0.01
2013-1-25,39.8,36.9,34.7,38.0,35.5,33.0,95,94,94,30.24,29.99,1,0,0,0.36
2013-1-26,41.7,37.7,35.0,39.0,36.1,34.0,95,94,88,30.02,29.94,3,0,0,0.09
2013-1-27,42.1,36.8,33.2,38.0,34.7,32.0,95,92,77,30.06,30.00,2,0,0,0.02
2013-1-28,37.9,34.2,31.8,36.0,32.8,31.0,95,94,90,30.02,29.91,1,0,0,0.18
2013-1-29,40.2,35.4,32.7,39.0,34.2,32.0,95,95,94,30.26,29.92,1,0,0,0.35
2013-1-30,42.4,36.6,32.9,40.0,35.2,32.0,95,94,91,30.32,30.21,2,0,0,0.41
2013-1-31,44.3,39.2,36.1,42.0,37.8,35.0,95,94,90,30.36,30.25,4,0,0,0.03
2013-2-1,49.2,39.5,32.5,44.0,37.5,31.0,95,92,80,30.53,30.26,3,0,0,0.00
2013-2-2,48.5,37.2,31.3,40.0,34.1,30.0,95,89,70,30.57,30.34,2,0,0,0.01
2013-2-3,47.9,36.6,30.6,39.0,33.7,29.0,95,89,69,30.33,30.18,5,0,0,0.00
2013-2-4,53.4,40.3,34.7,41.0,35.3,33.0,94,84,53,30.19,30.05,2,0,0,0.00
2013-2-5,50.7,40.5,35.3,43.0,37.2,33.0,94,88,71,30.05,29.86,3,0,0,0.02
2013-2-6,52.0,40.0,34.1,40.0,35.6,32.0,94,85,54,30.13,30.02,2,0,0,0.01
2013-2-7,47.0,37.7,32.6,38.0,34.2,31.0,93,87,66,30.07,29.95,6,0,0,0.03
2013-2-8,42.1,38.1,34.3,37.0,34.8,32.0,94,88,75,30.16,30.07,5,0,0,0.07
2013-2-9,41.6,36.4,31.7,35.0,32.3,30.0,94,85,68,30.23,30.09,4,0,0,0.00
2013-2-10,43.9,36.6,31.4,34.0,31.8,29.0,93,83,64,30.33,30.24,2,0,0,0.00
2013-2-11,48.8,37.6,32.4,34.0,31.2,29.0,90,79,47,30.29,30.20,4,0,0,0.00
2013-2-12,51.5,41.6,34.3,38.0,34.5,31.0,88,77,55,30.38,30.23,2,0,0,0.00
2013-2-13,54.2,44.5,35.2,40.0,36.4,32.0,89,75,50,30.39,30.22,7,1,0,0.00
2013-2-14,52.6,39.7,29.2,37.0,32.9,28.0,93,78,48,30.56,30.39,4,0,0,0.00
2013-2-15,58.2,42.5,33.6,39.0,35.2,31.0,92,77,45,30.59,30.33,3,0,0,0.00
2013-2-16,55.2,40.9,28.9,45.0,35.1,27.0,94,81,54,30.34,29.97,4,0,0,0.04
2013-2-17,46.8,41.3,36.3,37.0,35.6,33.0,91,80,61,30.16,30.03,5,1,0,0.02
2013-2-18,49.5,38.5,31.7,34.0,31.5,29.0,92,77,45,30.16,29.82,4,0,0,0.00
2013-2-19,45.2,38.6,33.7,38.0,33.9,31.0,92,83,70,29.91,29.74,4,0,0,0.03
2013-2-20,48.1,38.4,29.4,35.0,30.7,25.0,90,75,43,30.07,29.91,6,0,0,0.00
2013-2-21,42.6,34.5,28.7,35.0,30.4,25.0,94,85,61,30.13,30.05,2,0,0,0.11
2013-2-22,43.8,38.4,33.7,41.0,36.3,32.0,98,92,80,30.10,29.77,4,0,0,0.18
2013-2-23,46.7,38.7,32.4,37.0,32.7,28.0,94,81,51,30.31,29.80,6,1,0,0.18
2013-2-24,48.3,36.8,29.9,33.0,30.3,27.0,94,79,46,30.42,30.18,4,0,0,0.00
2013-2-25,47.5,38.1,31.7,40.0,34.1,29.0,94,86,65,30.20,30.02,6,1,0,0.07
2013-2-26,50.0,38.7,32.5,35.0,30.4,24.0,93,75,37,30.39,30.21,5,0,0,0.02
2013-2-27,55.3,40.9,31.4,32.0,30.0,26.0,91,69,33,30.37,30.27,5,0,0,0.00
2013-2-28,44.3,40.8,37.8,42.0,38.2,32.0,94,90,77,30.46,30.34,5,0,0,0.38
2013-3-1,49.8,43.8,39.9,46.0,41.5,38.0,94,91,82,30.49,30.39,3,0,0,0.12
2013-3-2,50.2,43.9,38.4,46.0,41.1,36.0,94,90,75,30.39,29.98,2,0,0,0.10
2013-3-3,49.0,40.8,29.4,44.0,31.2,25.0,94,72,40,30.23,29.95,8,1,0,0.12
2013-3-4,52.1,36.2,25.8,30.0,26.9,21.0,93,73,31,30.37,30.16,4,0,0,0.01
2013-3-5,47.1,36.8,26.7,35.0,29.1,25.0,92,76,49,30.18,29.80,2,0,0,0.00
2013-3-6,58.7,43.8,37.9,44.0,38.1,34.0,94,82,44,29.95,29.58,7,1,0,0.38
2013-3-7,55.0,43.1,33.3,40.0,36.1,31.0,94,79,44,30.09,29.95,4,0,0,0.06
2013-3-8,56.6,40.3,28.5,36.0,31.4,27.0,94,74,43,30.18,29.98,6,1,0,0.00
2013-3-9,54.4,40.5,30.7,39.0,32.6,28.0,90,75,48,30.49,30.19,4,0,0,0.00
2013-3-10,54.3,41.0,28.9,42.0,33.5,27.0,93,77,43,30.52,30.29,7,0,0,0.07
2013-3-11,57.0,44.5,39.0,42.0,38.5,35.0,94,81,47,30.35,30.25,4,0,0,0.01
2013-3-12,52.0,44.3,38.6,45.0,40.3,35.0,93,86,74,30.28,30.13,3,0,0,0.04
2013-3-13,61.8,49.7,42.5,50.0,44.6,41.0,94,84,58,30.25,30.12,4,0,0,0.00
2013-3-14,60.6,50.4,41.2,49.0,43.5,39.0,93,79,53,30.20,30.00,1,0,0,0.00
2013-3-15,65.8,53.5,45.3,46.0,42.7,38.0,91,70,36,30.17,30.05,5,1,0,0.00
2013-3-16,57.1,47.4,39.6,44.0,40.6,37.0,92,79,50,30.08,29.73,11,1,0,0.16
2013-3-17,39.5,39.5,39.5,36.0,36.0,36.0,88,88,88,29.82,29.82,4,2,0,0.19
2013-3-18,52.5,47.1,37.9,37.0,28.8,22.0,88,51,33,30.20,30.01,9,2,0,0.05
2013-3-19,57.4,42.6,27.7,38.0,30.9,24.0,89,66,40,30.34,29.87,4,1,0,0.00
2013-3-20,56.8,45.2,38.1,47.0,41.2,37.0,94,86,70,29.88,29.47,7,1,0,0.34
2013-3-21,44.0,38.0,34.0,38.0,33.9,30.0,94,85,62,30.12,29.89,7,1,0,0.07
2013-3-22,43.4,36.7,33.0,34.0,31.1,25.0,100,82,50,30.33,30.10,6,1,0,0.05
2013-3-23,47.0,37.1,31.4,33.0,30.2,23.0,93,78,40,30.41,30.30,12,1,0,0.03
2013-3-24,52.8,37.0,26.9,29.0,25.9,17.0,93,69,25,30.43,30.21,5,1,0,0.01
2013-3-25,58.3,41.5,26.9,37.0,29.2,24.0,91,66,30,30.26,29.99,3,0,0,0.00
2013-3-26,65.1,48.8,33.4,41.0,35.4,30.0,89,64,30,30.04,29.89,4,1,0,0.00
2013-3-27,66.6,51.3,40.9,47.0,40.9,37.0,92,70,37,30.00,29.89,5,1,0,0.00
2013-3-28,65.5,51.6,41.9,48.0,44.0,40.0,93,77,48,30.08,29.98,4,0,0,0.01
2013-3-29,62.6,52.9,46.0,49.0,46.4,43.0,90,79,54,30.23,30.09,8,1,0,0.01
2013-3-30,70.2,51.9,43.1,47.0,41.3,35.0,92,71,28,30.33,30.10,6,1,0,0.00
2013-3-31,73.8,52.3,36.2,42.0,37.6,26.0,93,64,17,30.15,29.86,4,0,0,0.00
2013-4-1,74.2,53.4,37.8,47.0,40.9,36.0,91,67,33,30.00,29.87,7,1,0,0.00
2013-4-2,71.4,54.1,40.9,48.0,44.0,39.0,92,72,40,30.13,29.97,6,1,0,0.00
2013-4-3,71.5,55.3,43.5,47.0,43.7,37.0,92,69,29,30.13,29.97,8,1,0,0.00
2013-4-4,60.4,52.0,43.8,50.0,44.9,41.0,91,78,56,30.01,29.73,6,0,0,0.02
2013-4-5,64.0,53.2,48.2,52.0,48.2,45.0,94,84,52,29.91,29.85,7,1,0,0.18
2013-4-6,60.4,52.0,48.5,49.0,46.2,39.0,94,82,45,29.92,29.87,4,0,0,0.31
2013-4-7,59.5,50.1,45.2,48.0,41.9,30.0,94,77,34,29.85,29.63,7,1,0,0.31
2013-4-8,52.6,45.3,37.3,43.0,38.0,33.0,90,77,51,30.23,29.79,9,1,0,0.00
2013-4-9,60.3,44.1,32.4,39.0,33.5,28.0,93,71,34,30.39,30.23,4,1,0,0.00
2013-4-10,56.8,50.0,44.0,50.0,42.1,38.0,90,75,51,30.25,29.89,9,1,0,0.00
2013-4-11,57.9,48.6,39.2,40.0,36.5,32.0,90,66,40,30.17,30.05,7,1,0,0.00
2013-4-12,63.2,47.8,33.3,46.0,35.9,27.0,93,69,28,30.15,29.66,7,1,0,0.00
2013-4-13,50.4,45.3,41.3,44.0,34.7,26.0,94,69,39,29.89,29.63,9,2,0,0.00
2013-4-14,51.7,41.5,34.4,37.0,34.1,28.0,90,76,41,29.97,29.87,5,1,0,0.00
2013-4-15,55.5,44.0,32.8,36.0,27.1,21.0,92,57,28,30.06,29.89,8,1,0,0.01
2013-4-16,53.1,41.6,29.0,28.0,21.5,13.0,82,51,22,30.34,30.07,6,1,0,0.09
2013-4-17,56.9,42.3,27.5,29.0,23.3,17.0,87,53,24,30.44,30.32,8,1,0,0.15
2013-4-18,57.5,44.4,30.2,38.0,30.1,25.0,83,60,34,30.44,30.24,4,0,0,0.01
2013-4-19,54.2,48.1,42.6,52.0,45.2,38.0,93,89,74,30.23,29.98,4,0,0,0.18
2013-4-20,60.9,53.3,46.7,49.0,43.4,36.0,94,72,41,30.13,30.01,8,1,0,0.16
2013-4-21,60.9,51.3,44.2,45.0,40.9,34.0,88,70,39,30.19,29.99,9,2,0,0.01
2013-4-22,58.3,46.0,33.6,39.0,29.8,21.0,89,58,24,30.44,30.20,7,1,0,0.00
2013-4-23,61.1,44.7,30.4,35.0,29.7,21.0,89,61,23,30.42,30.20,4,1,0,0.01
2013-4-24,67.7,49.4,32.0,40.0,33.4,29.0,91,60,26,30.39,30.01,8,1,0,0.00
2013-4-25,73.9,54.6,36.6,42.0,37.1,34.0,90,58,24,30.08,29.93,6,1,0,0.00
2013-4-26,78.7,58.2,39.9,49.0,42.1,37.0,89,60,27,30.22,30.07,5,1,0,0.00
2013-4-27,70.1,57.3,44.3,51.0,44.9,38.0,90,66,33,30.17,30.00,5,1,0,0.00
2013-4-28,68.8,58.3,51.3,48.0,43.6,36.0,87,61,32,30.10,29.89,7,1,0,0.00
2013-4-29,59.5,52.6,41.8,49.0,35.9,19.0,93,58,24,29.98,29.77,17,3,0,0.14
2013-4-30,53.0,42.5,32.4,38.0,30.5,25.0,91,65,34,30.42,29.98,7,2,0,0.02
2013-5-1,62.5,46.2,32.1,37.0,31.1,22.0,91,63,22,30.65,30.42,5,1,0,0.03
2013-5-2,73.7,52.3,33.0,41.0,34.6,29.0,90,57,23,30.67,30.25,4,1,0,0.00
2013-5-3,72.9,58.4,47.7,46.0,41.7,36.0,80,58,30,30.25,30.11,4,1,0,0.00
2013-5-4,76.7,60.5,42.6,46.0,38.9,32.0,91,53,21,30.23,29.99,17,2,0,0.00
2013-5-5,84.5,63.0,42.4,48.0,42.1,37.0,86,53,19,30.02,29.71,6,1,0,0.00
2013-5-6,87.9,65.4,45.5,50.0,43.2,28.0,87,53,12,29.89,29.62,5,1,0,0.00
2013-5-7,89.2,66.9,46.8,52.0,46.9,43.0,89,55,20,29.85,29.66,10,1,0,0.00
2013-5-8,88.6,68.6,49.7,55.0,49.2,45.0,85,55,25,29.95,29.81,6,1,0,0.00
2013-5-9,89.7,69.9,52.7,55.0,52.0,47.0,89,58,24,30.06,29.89,9,1,0,0.00
2013-5-10,93.2,69.2,51.0,53.0,49.5,35.0,89,57,13,30.17,29.98,5,0,0,0.00
2013-5-11,92.6,70.1,52.2,59.0,50.8,45.0,84,56,21,30.13,29.91,4,1,0,0.00
2013-5-12,88.8,71.2,56.0,60.0,54.9,50.0,88,61,28,30.01,29.84,6,1,0,0.00
2013-5-13,82.3,65.2,52.3,58.0,53.4,46.0,89,68,36,30.10,29.75,14,2,0,0.01
2013-5-14,70.4,58.5,49.0,49.0,43.8,37.0,91,63,30,30.14,29.99,8,1,0,0.02
2013-5-15,73.0,56.8,42.2,45.0,41.4,32.0,91,61,23,30.09,29.85,4,0,0,0.00
2013-5-16,71.1,59.5,52.1,50.0,46.6,43.0,85,65,38,29.94,29.79,6,1,0,0.00
2013-5-17,74.6,60.9,45.3,49.0,45.5,43.0,91,61,34,29.93,29.78,8,2,0,0.00
2013-5-18,64.6,57.6,49.0,50.0,46.2,43.0,86,67,48,30.13,29.93,5,0,0,0.00
2013-5-19,68.7,58.1,48.1,51.0,46.3,43.0,89,68,41,30.24,30.13,6,1,0,0.00
2013-5-20,80.1,63.1,47.8,51.0,47.9,45.0,90,62,29,30.28,29.86,7,1,0,0.00
2013-5-21,76.0,57.7,46.8,52.0,47.2,43.0,91,71,40,29.85,29.49,13,2,0,0.01
2013-5-22,56.7,48.8,40.6,47.0,40.2,37.0,91,73,53,30.01,29.75,7,1,0,0.05
2013-5-23,69.2,53.5,37.8,41.0,35.6,26.0,92,58,22,30.05,29.86,6,1,0,0.01
2013-5-24,56.7,48.7,39.8,49.0,42.9,37.0,92,81,64,30.06,29.93,4,0,0,0.05
2013-5-25,69.0,54.6,40.8,46.0,41.7,37.0,92,66,34,30.07,29.92,5,1,0,0.07
2013-5-26,74.1,57.9,41.5,51.0,44.5,39.0,91,65,32,29.97,29.82,7,1,0,0.02
2013-5-27,74.0,62.0,54.4,54.0,49.7,43.0,92,67,34,29.94,29.71,8,1,0,0.01
2013-5-28,69.6,60.3,53.2,54.0,50.0,45.0,93,72,43,29.80,29.74,8,1,0,0.04
2013-5-29,66.2,55.6,47.5,54.0,49.7,45.0,92,81,57,29.90,29.64,8,1,0,0.02
2013-5-30,66.5,56.9,48.3,51.0,45.6,38.0,93,70,36,30.14,29.90,15,1,0,0.06
2013-5-31,73.8,58.6,45.6,47.0,42.6,35.0,90,60,25,30.26,30.14,7,1,0,0.01
2013-6-1,76.1,59.5,42.4,50.0,43.5,36.0,90,60,24,30.23,29.94,4,0,0,0.00
2013-6-2,71.9,59.4,46.6,56.0,47.6,43.0,89,67,38,29.95,29.81,10,1,0,0.02
2013-6-3,77.8,62.8,49.8,54.0,47.6,41.0,93,64,27,30.00,29.91,6,1,0,0.03
2013-6-4,82.8,65.0,46.6,51.0,46.4,42.0,90,57,24,30.09,29.95,4,1,0,0.00
2013-6-5,87.3,68.3,49.4,54.0,48.2,39.0,89,55,19,30.05,29.86,8,1,0,0.00
2013-6-6,92.7,71.9,54.8,59.0,52.8,47.0,84,56,23,29.98,29.77,5,1,0,0.00
2013-6-7,86.6,72.9,56.9,58.0,51.6,39.0,88,52,24,29.90,29.74,12,2,0,0.00
2013-6-8,84.5,69.1,52.1,49.0,45.2,40.0,77,46,22,30.01,29.85,7,1,0,0.00
2013-6-9,82.4,67.7,50.8,50.0,46.0,38.0,84,51,21,29.93,29.75,7,2,0,0.00
2013-6-10,84.7,66.9,47.0,47.0,43.3,38.0,85,49,19,29.87,29.62,11,1,0,0.00
2013-6-11,76.2,64.8,50.4,47.0,43.8,40.0,81,50,30,29.98,29.73,11,2,0,0.00
2013-6-12,74.1,64.5,55.7,47.0,44.4,41.0,70,50,33,30.02,29.91,10,2,0,0.00
2013-6-13,73.0,63.6,55.0,51.0,45.1,40.0,82,53,32,30.04,29.96,9,2,0,0.00
2013-6-14,75.5,62.3,51.3,47.0,43.9,40.0,80,54,29,30.15,30.00,6,1,0,0.00
2013-6-15,86.2,65.9,45.4,47.0,42.6,35.0,87,50,16,30.06,29.83,5,1,0,0.00
2013-6-16,94.7,71.3,49.0,51.0,44.0,33.0,81,45,13,30.00,29.75,5,1,0,0.00
2013-6-17,90.3,73.5,55.8,57.0,51.7,48.0,76,50,27,29.96,29.68,5,1,0,0.00
2013-6-18,79.3,68.0,59.0,56.0,53.3,51.0,78,61,42,29.83,29.70,13,2,0,0.00
2013-6-19,61.4,56.2,51.8,56.0,53.3,49.0,93,90,75,29.92,29.72,8,1,0,0.23
2013-6-20,66.8,57.1,50.3,54.0,48.9,45.0,93,77,45,30.05,29.89,4,0,0,0.18
2013-6-21,71.0,58.8,50.4,55.0,49.7,47.0,92,74,45,30.09,30.02,6,1,0,0.11
2013-6-22,77.1,62.8,50.7,52.0,49.2,43.0,91,65,31,30.08,29.89,6,1,0,0.09
2013-6-23,81.4,66.3,49.3,58.0,51.4,47.0,92,63,33,29.90,29.53,4,0,0,0.07
2013-6-24,72.9,63.9,60.2,64.0,59.1,56.0,92,85,60,29.72,29.52,2,0,0,0.05
2013-6-25,74.1,63.1,57.6,62.0,58.9,56.0,95,86,62,29.88,29.72,7,1,0,0.06
2013-6-26,71.6,62.7,58.1,64.0,59.6,56.0,93,90,72,30.09,29.87,4,0,0,0.04
2013-6-27,91.4,72.5,57.5,66.0,60.7,56.0,93,71,33,30.15,30.00,5,1,0,0.05
2013-6-28,97.8,78.3,61.3,70.0,63.8,59.0,92,65,31,30.16,29.89,6,0,0,0.03
2013-6-29,94.9,78.6,64.4,69.0,65.0,61.0,90,66,38,30.00,29.77,11,1,0,0.03
2013-6-30,98.8,80.2,64.1,69.0,63.4,55.0,91,62,23,29.98,29.80,4,1,0,0.01
2013-7-1,105.7,82.5,64.1,74.0,66.0,61.0,90,62,27,29.93,29.68,3,0,0,0.02
2013-7-2,102.1,83.7,68.2,72.0,67.2,63.0,85,61,30,29.94,29.75,6,1,0,0.00
2013-7-3,95.0,81.1,68.3,69.0,62.1,56.0,90,57,27,29.92,29.76,8,1,0,0.00
2013-7-4,89.7,75.3,61.8,61.0,55.1,46.0,86,55,22,29.87,29.70,6,1,0,0.00
2013-7-5,84.8,71.6,56.3,56.0,52.3,47.0,86,54,28,29.83,29.70,11,2,0,0.00
2013-7-6,90.9,69.8,54.0,59.0,52.2,45.0,86,59,21,29.88,29.66,6,1,0,0.00
2013-7-7,94.3,75.5,57.4,57.0,53.2,39.0,87,52,15,29.83,29.64,6,1,0,0.00
2013-7-8,89.0,72.7,61.1,60.0,55.5,49.0,84,59,25,29.99,29.73,6,1,0,0.00
2013-7-9,94.7,75.5,57.7,57.0,52.6,40.0,85,51,16,30.07,29.86,4,1,0,0.00
2013-7-10,97.8,77.4,57.9,58.0,53.3,50.0,81,48,20,29.94,29.64,8,1,0,0.00
2013-7-11,88.5,72.7,60.0,56.0,50.5,42.0,81,51,20,29.83,29.70,7,1,0,0.00
2013-7-12,85.9,70.0,54.0,51.0,45.2,38.0,79,47,19,29.87,29.74,10,1,0,0.00
2013-7-13,85.1,76.2,60.3,48.0,42.8,37.0,63,33,19,30.06,29.95,6,2,0,0.00
2013-7-14,93.3,72.2,53.9,51.0,46.4,39.0,77,46,15,30.10,29.81,4,1,0,0.00
2013-7-15,93.1,73.5,55.0,53.0,47.6,37.0,78,47,14,29.92,29.75,8,1,0,0.00
2013-7-16,98.5,77.5,57.8,64.0,54.8,49.0,77,50,23,29.89,29.62,6,1,0,0.00
2013-7-17,96.4,82.2,68.6,64.0,57.8,49.0,79,48,20,29.98,29.72,10,2,0,0.00
2013-7-18,99.1,79.0,59.8,56.0,51.3,40.0,81,45,13,30.07,29.87,5,1,0,0.00
2013-7-19,100.1,78.2,58.0,53.0,48.7,38.0,77,42,12,30.02,29.78,5,1,0,0.00
2013-7-20,100.2,76.4,57.8,52.0,47.8,34.0,75,43,10,29.92,29.68,5,1,0,0.00
2013-7-21,100.4,77.4,56.4,53.0,46.5,29.0,74,40,8,29.83,29.62,7,1,0,0.00
2013-7-22,98.9,77.5,56.7,52.0,47.8,41.0,75,41,14,29.85,29.73,6,1,0,0.00
2013-7-23,101.7,76.7,57.6,51.0,47.8,30.0,74,43,8,29.98,29.75,2,0,0,0.00
2013-7-24,103.2,80.1,58.9,52.0,45.7,26.0,70,37,7,29.94,29.74,4,1,0,0.00
2013-7-25,102.9,80.3,60.3,52.0,47.4,34.0,71,38,9,29.96,29.80,5,1,0,0.00
2013-7-26,102.0,78.8,57.3,52.0,46.2,31.0,74,38,9,30.04,29.78,6,1,0,0.00
2013-7-27,92.9,76.8,60.0,50.0,45.6,36.0,68,37,14,29.95,29.73,6,1,0,0.00
2013-7-28,92.2,72.9,54.8,49.0,44.2,35.0,73,41,13,29.85,29.66,6,1,0,0.00
2013-7-29,93.5,73.8,54.6,49.0,43.8,29.0,74,40,10,29.88,29.73,6,1,0,0.00
2013-7-30,94.4,76.0,62.4,50.0,46.2,38.0,61,39,14,29.99,29.84,6,0,0,0.00
2013-7-31,98.9,77.8,58.2,55.0,49.0,37.0,70,42,12,30.04,29.75,6,1,0,0.00
2013-8-1,86.8,69.8,60.7,59.0,53.9,50.0,91,61,31,29.92,29.73,5,0,0,0.05
2013-8-2,75.2,65.8,60.5,62.0,58.8,56.0,92,79,52,30.01,29.89,7,1,0,0.15
2013-8-3,81.5,68.2,56.5,59.0,56.3,53.0,91,69,40,30.07,29.94,6,1,0,0.03
2013-8-4,92.2,73.0,56.2,58.0,54.6,48.0,90,59,22,30.04,29.81,6,1,0,0.02
2013-8-5,95.3,74.6,58.7,57.0,53.9,47.0,84,54,19,29.94,29.74,6,1,0,0.01
2013-8-6,98.0,77.2,59.1,56.0,52.6,41.0,83,49,14,29.94,29.74,5,1,0,0.00
2013-8-7,99.0,77.6,58.6,55.0,50.4,32.0,81,46,10,29.90,29.70,5,1,0,0.00
2013-8-8,97.6,76.2,58.0,57.0,51.8,47.0,78,47,20,29.92,29.68,5,1,0,0.00
2013-8-9,98.5,79.1,62.1,60.0,54.2,49.0,78,46,23,29.82,29.62,11,1,0,0.00
2013-8-10,98.6,80.0,59.8,59.0,53.2,49.0,75,44,20,29.88,29.66,4,1,0,0.00
2013-8-11,92.7,79.6,65.2,58.0,55.4,49.0,75,46,28,29.91,29.76,4,1,0,0.00
2013-8-12,97.6,80.4,63.8,57.0,53.7,47.0,73,43,20,29.93,29.74,4,1,0,0.00
2013-8-13,96.5,79.1,64.7,57.0,53.2,47.0,65,43,19,29.98,29.79,5,0,0,0.00
2013-8-14,102.6,79.7,60.2,58.0,53.3,46.0,78,46,15,29.93,29.65,4,1,0,0.00
2013-8-15,101.0,81.5,65.0,57.0,53.6,49.0,70,42,18,29.89,29.65,6,1,0,0.00
2013-8-16,97.6,80.4,62.5,56.0,53.8,51.0,73,44,21,29.91,29.75,5,1,0,0.00
2013-8-17,95.6,79.7,64.1,65.0,59.0,54.0,90,54,26,29.95,29.76,6,1,0,0.07
2013-8-18,94.0,77.3,61.7,60.0,53.9,45.0,83,50,19,30.01,29.83,6,1,0,0.00
2013-8-19,94.4,75.8,58.3,54.0,50.6,45.0,79,46,19,30.00,29.80,9,1,0,0.00
2013-8-20,90.9,73.3,57.8,52.0,47.0,37.0,75,44,15,30.00,29.84,6,1,0,0.00
2013-8-21,95.7,72.4,52.6,47.0,42.9,32.0,72,40,11,30.04,29.80,6,1,0,0.00
2013-8-22,92.5,74.8,61.3,64.0,51.3,43.0,84,46,26,29.91,29.66,5,1,0,0.03
2013-8-23,89.7,74.6,62.0,62.0,57.4,53.0,88,59,29,29.86,29.67,5,1,0,0.09
2013-8-24,95.1,75.3,56.2,57.0,52.8,49.0,85,51,23,29.82,29.56,8,1,0,0.00
2013-8-25,93.8,74.5,60.5,66.0,53.4,50.0,86,52,24,29.92,29.62,6,1,0,0.02
2013-8-26,91.4,72.4,58.2,61.0,56.2,49.0,91,63,24,29.95,29.73,6,1,0,0.10
2013-8-27,92.3,72.4,57.0,56.0,52.9,47.0,85,56,22,29.93,29.65,6,1,0,0.00
2013-8-30,89.1,79.1,63.1,57.0,55.1,53.0,76,46,29,30.08,29.91,6,1,0,0.00
2013-8-31,96.5,74.3,56.6,56.0,53.4,50.0,85,53,21,30.04,29.75,5,1,0,0.00
2013-9-1,99.0,76.5,57.0,56.0,52.0,48.0,79,47,18,29.85,29.64,6,0,0,0.00
2013-9-2,91.0,76.4,67.8,60.0,55.8,53.0,69,51,29,29.82,29.69,4,0,0,0.00
2013-9-3,82.6,72.5,67.1,70.0,62.5,58.0,87,71,55,29.95,29.82,5,0,0,0.04
2013-9-4,98.8,78.0,63.1,65.0,60.6,56.0,89,60,24,29.95,29.75,5,0,0,0.01
2013-9-5,83.8,71.9,65.3,71.0,64.3,59.0,90,78,53,29.99,29.72,6,1,0,0.14
2013-9-6,80.7,69.1,60.0,61.0,56.4,51.0,91,67,41,30.06,29.87,12,1,0,0.09
2013-9-7,84.7,69.7,57.3,55.0,52.9,50.0,83,58,31,30.07,29.87,6,0,0,0.00
2013-9-8,79.4,68.3,59.9,55.0,52.6,49.0,82,60,37,30.01,29.91,6,1,0,0.00
2013-9-9,88.0,69.9,56.8,56.0,53.5,51.0,83,59,30,30.01,29.83,4,0,0,0.00
2013-9-10,94.2,71.6,54.6,57.0,52.1,46.0,88,56,19,30.01,29.80,4,0,0,0.00
2013-9-11,100.9,75.7,54.8,56.0,51.9,47.0,84,50,17,30.02,29.79,5,1,0,0.00
2013-9-12,100.6,77.4,58.2,55.0,50.8,46.0,73,45,16,29.93,29.69,6,1,0,0.00
2013-9-13,96.7,78.2,62.2,57.0,54.1,52.0,73,47,22,29.81,29.59,5,1,0,0.00
2013-9-14,98.3,77.9,61.4,58.0,54.4,50.0,75,48,22,29.82,29.64,5,1,0,0.00
2013-9-15,98.6,78.8,61.1,63.0,52.6,49.0,70,44,20,29.77,29.50,8,1,0,0.00
2013-9-16,83.1,72.4,63.0,60.0,53.7,48.0,83,54,31,29.80,29.61,6,1,0,0.00
2013-9-17,74.5,61.4,53.3,55.0,51.0,47.0,91,70,44,29.79,29.55,14,1,0,0.03
2013-9-18,67.5,58.5,51.8,55.0,52.1,48.0,91,80,55,30.10,29.78,6,0,0,0.15
2013-9-19,78.9,58.6,45.5,49.0,44.9,36.0,91,66,22,30.18,29.89,5,1,0,0.07
2013-9-20,89.8,61.8,43.5,48.0,44.5,38.0,90,60,16,29.93,29.47,5,0,0,0.03
2013-9-21,76.0,62.4,51.2,50.0,46.8,43.0,84,60,32,29.70,29.54,5,0,0,0.00
2013-9-22,68.9,60.8,55.8,54.0,50.6,48.0,90,70,51,29.75,29.62,2,0,0,0.01
2013-9-23,70.0,59.9,51.6,53.0,48.0,42.0,91,69,38,29.94,29.75,6,0,0,0.05
2013-9-24,60.8,55.2,50.5,56.0,52.0,48.0,92,89,78,29.90,29.75,7,0,0,0.05
2013-9-25,57.3,51.9,48.7,51.0,49.0,47.0,92,89,72,29.81,29.74,2,0,0,0.09
2013-9-26,66.3,54.1,45.9,51.0,46.9,41.0,92,78,40,30.04,29.81,6,0,0,0.07
2013-9-27,59.7,50.8,42.2,49.0,44.0,40.0,92,79,57,30.10,29.98,7,0,0,0.05
2013-9-28,62.2,54.2,51.0,55.0,51.6,49.0,92,90,71,29.98,29.50,5,0,0,0.05
2013-9-29,69.5,53.5,50.1,53.0,49.6,47.0,92,87,48,29.75,29.47,9,1,0,0.03
2013-9-30,64.2,54.2,44.8,49.0,44.7,38.0,92,73,41,29.95,29.51,6,1,0,0.06
2013-10-1,63.4,51.5,44.7,49.0,44.9,40.0,92,80,43,30.19,29.94,9,1,0,0.04
2013-10-2,61.9,50.3,43.0,44.0,41.6,39.0,92,75,43,30.21,29.93,7,1,0,0.03
2013-10-3,60.9,48.5,42.0,49.0,42.0,39.0,92,79,50,30.41,29.98,7,1,0,0.03
2013-10-4,61.8,45.2,37.2,42.0,37.2,33.0,92,76,37,30.57,30.42,4,0,0,0.03
2013-10-5,67.0,46.8,33.6,44.0,37.6,31.0,92,74,36,30.53,30.28,3,0,0,0.02
2013-10-6,73.7,50.0,35.0,48.0,40.3,33.0,92,73,34,30.34,29.93,4,0,0,0.02
2013-10-7,66.2,51.4,38.2,47.0,40.6,36.0,92,70,38,30.00,29.85,9,1,0,0.02
2013-10-8,53.5,47.7,43.0,47.0,43.3,39.0,92,85,77,30.00,29.91,1,0,0,0.01
2013-10-9,56.9,46.4,41.1,45.0,41.6,38.0,92,84,63,30.07,29.93,5,0,0,0.02
2013-10-10,59.1,49.8,43.8,47.0,43.4,41.0,90,79,54,29.99,29.87,5,0,0,0.02
2013-10-11,60.1,51.0,45.2,47.0,44.0,42.0,90,78,51,30.11,30.00,4,0,0,0.01
2013-10-12,61.6,49.2,42.1,45.0,41.7,39.0,92,77,47,30.12,29.98,6,0,0,0.01
2013-10-13,56.5,45.4,38.9,44.0,40.8,36.0,91,84,61,30.32,30.12,3,0,0,0.01
2013-10-14,61.6,45.5,36.6,44.0,38.5,35.0,92,78,48,30.43,30.32,3,0,0,0.01
2013-10-15,61.2,43.8,32.6,41.0,36.3,31.0,92,77,44,30.48,30.23,3,0,0,0.02
2013-10-16,60.2,46.2,38.2,45.0,38.5,36.0,90,76,45,30.23,30.12,4,0,0,0.01
2013-10-17,61.4,45.7,37.6,44.0,39.0,35.0,92,79,48,30.32,30.20,4,0,0,0.02
2013-10-18,60.4,44.4,35.3,43.0,37.7,33.0,91,79,52,30.39,30.20,5,0,0,0.00
2013-10-19,62.2,44.7,33.0,46.0,38.0,31.0,92,79,45,30.26,30.07,3,0,0,0.00
2013-10-20,63.2,46.0,34.6,45.0,39.3,33.0,92,79,50,30.24,30.11,4,0,0,0.01
2013-10-21,65.9,47.1,35.3,48.0,40.4,33.0,92,80,49,30.30,30.14,4,0,0,0.01
2013-10-22,65.7,47.3,35.3,48.0,41.2,33.0,92,81,52,30.29,30.08,4,0,0,0.01
2013-10-23,66.0,47.1,36.3,47.0,40.7,34.0,92,80,49,30.22,30.05,5,0,0,0.00
2013-10-24,64.5,47.6,35.8,45.0,40.6,34.0,92,79,45,30.20,30.04,4,0,0,0.00
2013-10-25,64.3,46.2,34.8,46.0,40.0,33.0,92,81,50,30.30,30.17,4,0,0,0.00
2013-10-26,63.2,45.0,33.9,46.0,39.1,32.0,92,81,51,30.37,30.11,2,0,0,0.00
2013-10-27,56.1,46.7,35.8,47.0,40.4,34.0,92,80,49,30.10,29.66,3,0,0,0.00
2013-10-28,55.9,48.3,34.9,36.0,25.4,21.0,79,44,27,29.89,29.77,12,2,0,0.00
2013-10-29,52.9,37.3,27.7,30.0,25.9,23.0,83,66,35,30.09,29.89,4,0,0,0.00
2013-10-30,54.2,38.4,25.9,35.0,28.5,23.0,92,70,39,30.17,30.07,2,0,0,0.00
2013-10-31,46.1,39.8,34.6,40.0,35.2,29.0,90,83,77,30.24,30.12,1,0,0,0.00
2013-11-1,58.6,45.0,38.2,45.0,39.9,36.0,91,83,61,30.34,30.05,2,0,0,0.00
2013-11-2,47.4,42.1,37.2,45.0,39.8,35.0,93,91,88,30.04,29.71,3,0,0,0.01
2013-11-3,44.9,39.2,36.9,40.0,37.0,35.0,93,92,83,30.08,29.88,1,0,0,0.01
2013-11-4,42.5,36.6,31.6,38.0,34.5,30.0,99,92,83,30.29,30.06,4,0,0,0.00
2013-11-5,35.8,33.4,30.2,34.0,31.6,28.0,93,93,90,30.30,30.22,4,0,0,0.05
2013-11-6,47.4,41.4,35.8,43.0,38.9,34.0,93,90,81,30.42,30.28,2,0,0,0.01
2013-11-7,46.0,43.4,41.5,44.0,41.6,40.0,93,93,93,30.29,29.81,4,0,0,0.03
2013-11-8,50.2,43.8,37.2,47.0,41.8,35.0,93,92,89,30.23,29.98,1,0,0,0.02
2013-11-9,48.3,41.3,34.7,43.0,38.1,33.0,93,89,74,30.28,30.14,3,0,0,0.01
2013-11-10,51.7,44.7,40.4,47.0,42.3,39.0,98,91,79,30.25,30.13,1,0,0,0.01
2013-11-11,56.4,45.2,38.5,47.0,41.5,37.0,98,87,69,30.37,30.25,4,0,0,0.00
2013-11-12,48.4,42.7,36.1,45.0,40.4,34.0,93,91,85,30.38,30.29,2,0,0,0.01
2013-11-13,52.6,45.9,40.3,48.0,43.4,39.0,93,91,82,30.42,30.30,2,0,0,0.01
2013-11-14,49.1,42.8,38.6,42.0,39.2,37.0,93,87,75,30.30,29.96,4,0,0,0.00
2013-11-15,49.2,42.4,39.1,40.0,38.3,35.0,93,86,62,29.97,29.44,5,0,0,0.01
2013-11-16,47.1,40.9,36.6,40.0,36.9,33.0,93,86,60,29.74,29.30,7,0,0,0.00
2013-11-17,48.7,40.6,36.2,43.0,37.7,34.0,93,89,74,30.03,29.75,4,0,0,0.01
2013-11-18,43.3,37.4,32.4,39.0,35.0,31.0,93,91,81,30.06,29.84,4,0,0,0.00
2013-11-19,44.7,42.1,38.3,43.0,40.3,36.0,93,93,92,29.83,29.70,3,0,0,0.00
2013-11-20,44.3,35.1,24.4,42.0,27.5,17.0,93,76,37,30.48,29.81,6,1,0,0.01
2013-11-21,37.2,26.6,20.7,26.0,22.1,19.0,91,84,57,30.80,30.48,2,0,0,0.02
2013-11-22,39.0,26.3,19.4,27.0,21.9,17.0,91,84,58,30.87,30.72,2,0,0,0.05
2013-11-23,39.4,26.7,19.7,28.0,22.6,17.0,91,85,62,30.73,30.43,2,0,0,0.10
2013-11-24,42.7,28.6,21.0,32.0,24.8,19.0,92,86,64,30.46,30.33,1,0,0,0.14
2013-11-25,44.2,31.5,24.2,33.0,27.8,22.0,99,86,64,30.55,30.42,1,0,0,0.11
2013-11-26,43.6,31.6,24.2,34.0,28.1,22.0,100,87,69,30.45,30.23,4,0,0,0.08
2013-11-27,41.5,31.6,25.6,35.0,28.7,24.0,93,89,75,30.29,30.14,4,0,0,0.08
2013-11-28,40.2,32.1,27.5,34.0,29.3,25.0,93,89,79,30.32,30.20,5,1,0,0.27
2013-11-29,37.5,33.3,28.0,34.0,29.8,25.0,92,87,78,30.37,30.29,7,1,0,0.07
2013-11-30,40.9,37.4,34.8,39.0,35.5,33.0,93,93,91,30.37,30.25,2,0,0,0.08
2013-12-1,45.0,40.7,37.1,43.0,39.0,35.0,93,93,93,30.24,29.74,2,0,0,0.22
2013-12-2,47.7,39.4,32.3,44.0,35.7,30.0,93,87,59,29.94,29.65,11,1,0,2.22
2013-12-3,33.0,27.4,17.2,31.0,22.9,14.0,93,84,54,30.31,29.94,7,0,0,0.05
2013-12-4,26.8,17.5,12.3,18.0,13.0,9.0,89,83,60,30.46,30.31,4,0,0,0.00
2013-12-5,23.6,14.8,9.2,12.0,9.3,6.0,88,80,57,30.46,30.36,6,0,0,0.00
2013-12-6,26.2,16.3,7.2,16.0,6.8,0.0,87,69,46,30.40,30.24,8,1,0,0.00
2013-12-7,21.2,13.5,4.9,7.0,4.1,0.0,82,68,41,30.54,30.21,8,1,0,0.00
2013-12-8,17.9,9.2,2.2,8.0,3.7,-2.0,84,78,59,30.73,30.54,4,0,0,0.00
2013-12-9,22.4,17.2,10.0,18.0,12.9,5.0,87,83,76,30.72,30.51,4,0,0,0.00
2013-12-10,29.2,25.4,21.3,26.0,22.3,18.0,91,88,82,30.56,30.49,1,0,0,0.00
2013-12-11,37.8,29.0,23.1,30.0,25.9,21.0,92,88,73,30.56,30.46,3,0,0,0.10
2013-12-12,36.7,29.8,22.4,29.0,25.7,21.0,92,85,70,30.46,30.21,4,0,0,0.02
2013-12-13,36.5,33.7,31.2,35.0,31.9,29.0,93,93,90,30.51,30.25,0,0,0,0.17
2013-12-14,40.1,35.5,33.4,38.0,33.7,32.0,93,93,92,30.54,30.40,1,0,0,0.05
2013-12-15,43.0,34.8,31.6,40.0,32.9,30.0,94,93,87,30.43,30.33,4,0,0,0.00
2013-12-16,35.8,33.1,31.0,33.0,31.2,29.0,94,92,90,30.53,30.43,6,1,0,0.00
2013-12-17,38.3,32.0,27.4,33.0,29.2,25.0,93,89,79,30.48,30.09,5,1,0,0.00
2013-12-18,36.2,32.2,28.8,34.0,30.3,27.0,94,93,89,30.10,29.93,2,0,0,0.15
2013-12-19,34.3,31.9,25.6,32.0,25.9,21.0,94,79,61,30.27,29.98,6,1,0,0.03
2013-12-20,31.5,27.2,23.3,30.0,25.0,21.0,93,91,84,30.21,29.73,2,0,0,0.00
2013-12-21,35.8,33.0,30.4,34.0,31.2,29.0,94,93,92,30.16,29.82,0,0,0,0.13
2013-12-22,36.5,34.3,33.1,35.0,32.9,31.0,94,94,93,30.37,30.16,1,0,0,0.30
2013-12-23,38.0,35.2,32.5,37.0,33.8,31.0,94,94,94,30.39,30.11,2,0,0,0.43
2013-12-24,38.1,31.3,25.6,36.0,29.7,24.0,94,94,90,30.66,30.40,2,0,0,0.17
2013-12-25,35.4,28.6,22.9,31.0,26.5,21.0,94,91,83,30.67,30.50,5,0,0,0.00
2013-12-26,40.0,30.8,25.2,34.0,28.6,24.0,94,91,79,30.53,30.40,4,0,0,0.00
2013-12-27,36.8,30.0,22.4,34.0,27.9,21.0,100,92,85,30.43,30.18,2,0,0,0.00
2013-12-28,36.5,31.6,27.8,34.0,29.9,26.0,100,93,90,30.56,30.27,4,0,0,0.00
2013-12-29,37.8,33.2,28.7,32.0,30.3,27.0,94,89,75,30.56,30.34,5,0,0,0.00
2013-12-30,37.1,33.1,28.4,34.0,31.0,27.0,94,92,83,30.39,30.21,2,0,0,0.09
2013-12-31,39.6,35.9,33.8,38.0,34.6,32.0,94,94,94,30.41,30.18,2,0,0,0.06
2014-1-1,41.2,29.7,34.2,37.0,10.4,-99.9,94,76,84,30.52,30.41,3,-177,0,0.00
2014-1-2,39.4,30.6,32.8,36.0,13.1,-99.9,93,77,85,30.43,29.88,3,-156,0,0.00